Time;durP1;ratioP1;P1;durP2;ratioP2;P2;SDS_P1;SDS_P2;PMS_P1;PMS_P2;Temp;Humidity;BMP_temperature;BMP_pressure;BME280_temperature;BME280_humidity;BME280_pressure;Samples;Min_cycle;Max_cycle;Signal;HPM_P1;HPM_P2
2020/12/09 00:04:52;;;;;;;37.53;27.60;;;5.50;99.90;;;;;;10459199;28;20292;-79
2020/12/09 00:09:54;;;;;;;37.23;28.10;;;5.40;99.90;;;;;;10459299;28;20752;-79
2020/12/09 00:14:55;;;;;;;33.63;26.20;;;5.40;99.90;;;;;;10460945;28;20216;-79
2020/12/09 00:19:58;;;;;;;35.80;25.73;;;5.40;99.90;;;;;;10478076;28;20502;-79
2020/12/09 00:24:59;;;;;;;34.43;26.60;;;5.50;99.90;;;;;;10497855;28;20669;-79
2020/12/09 00:30:02;;;;;;;35.67;27.00;;;5.50;99.90;;;;;;10475415;28;20306;-79
2020/12/09 00:35:07;;;;;;;38.20;27.77;;;5.50;99.90;;;;;;10475157;28;20589;-79
2020/12/09 00:40:09;;;;;;;36.63;26.80;;;5.50;99.90;;;;;;10544829;22;20276;-82
2020/12/09 00:45:10;;;;;;;38.63;27.13;;;5.50;99.90;;;;;;10505835;28;20192;-82
2020/12/09 00:50:28;;;;;;;38.53;29.13;;;5.50;99.90;;;;;;10522097;28;20223;-81
2020/12/09 00:55:38;;;;;;;36.20;26.93;;;5.60;99.90;;;;;;10522454;28;20227;-80
2020/12/09 01:00:40;;;;;;;35.40;26.77;;;5.60;99.90;;;;;;10522208;28;20238;-81
2020/12/09 01:05:51;;;;;;;37.10;27.47;;;5.60;99.90;;;;;;10530055;28;20202;-81
2020/12/09 01:10:53;;;;;;;32.83;24.13;;;5.60;99.90;;;;;;10539577;28;20246;-81
2020/12/09 01:15:54;;;;;;;36.20;28.10;;;5.60;99.90;;;;;;10560612;28;20204;-82
2020/12/09 01:20:57;;;;;;;35.67;26.70;;;5.50;99.90;;;;;;10524463;28;20683;-81
2020/12/09 01:25:58;;;;;;;35.27;26.77;;;5.50;99.90;;;;;;10503062;28;20659;-81
2020/12/09 01:31:00;;;;;;;35.47;27.90;;;5.60;99.90;;;;;;10536707;28;20570;-80
2020/12/09 01:36:03;;;;;;;35.20;26.73;;;5.60;99.90;;;;;;10518105;28;20304;-81
2020/12/09 01:41:04;;;;;;;36.60;26.43;;;5.50;99.90;;;;;;10480618;28;20323;-81
2020/12/09 01:46:10;;;;;;;37.00;27.30;;;5.60;99.90;;;;;;10477164;28;20642;-80
2020/12/09 01:51:15;;;;;;;35.53;25.97;;;5.60;99.90;;;;;;10515870;28;20251;-79
2020/12/09 01:56:17;;;;;;;36.80;27.27;;;5.60;99.90;;;;;;10537685;28;20330;-81
2020/12/09 02:01:20;;;;;;;34.50;26.70;;;5.60;99.90;;;;;;10512715;28;20226;-80
2020/12/09 02:06:22;;;;;;;38.73;27.93;;;5.60;99.90;;;;;;10518086;28;20291;-81
2020/12/09 02:11:24;;;;;;;34.20;26.03;;;5.60;99.90;;;;;;10503267;28;20220;-80
2020/12/09 02:16:26;;;;;;;38.97;28.57;;;5.60;99.90;;;;;;10500779;28;20251;-81
2020/12/09 02:21:33;;;;;;;36.03;27.63;;;5.60;99.90;;;;;;10508741;28;20230;-81
2020/12/09 02:26:34;;;;;;;40.43;28.10;;;5.60;99.90;;;;;;10539657;28;20546;-80
2020/12/09 02:31:36;;;;;;;40.17;27.40;;;5.60;99.90;;;;;;10541626;28;20579;-81
2020/12/09 02:36:38;;;;;;;36.47;27.00;;;5.60;99.90;;;;;;10543445;28;20243;-81
2020/12/09 02:41:40;;;;;;;41.60;30.07;;;5.60;99.90;;;;;;10524064;28;20243;-81
2020/12/09 02:46:41;;;;;;;36.10;27.40;;;5.70;99.90;;;;;;10524259;28;20187;-80
2020/12/09 02:51:44;;;;;;;40.50;29.30;;;5.70;99.90;;;;;;10525842;28;20239;-81
2020/12/09 02:56:46;;;;;;;35.47;25.67;;;5.70;99.90;;;;;;10508784;28;20273;-81
2020/12/09 03:01:47;;;;;;;39.63;28.63;;;5.70;99.90;;;;;;10510722;28;20223;-81
2020/12/09 03:06:50;;;;;;;41.27;28.60;;;5.70;99.90;;;;;;10534378;28;20726;-81
2020/12/09 03:11:51;;;;;;;35.97;26.47;;;5.70;99.90;;;;;;10508634;28;20230;-80
2020/12/09 03:16:53;;;;;;;42.00;29.17;;;5.70;99.90;;;;;;10538053;28;20276;-81
2020/12/09 03:21:55;;;;;;;41.70;30.60;;;5.70;99.90;;;;;;10519606;28;20740;-80
2020/12/09 03:26:57;;;;;;;36.47;27.30;;;5.70;99.90;;;;;;10502437;28;20230;-80
2020/12/09 03:31:59;;;;;;;34.67;27.47;;;5.70;99.90;;;;;;10520202;28;20215;-82
2020/12/09 03:37:01;;;;;;;38.90;28.43;;;5.70;99.90;;;;;;10522687;28;20299;-80
2020/12/09 03:42:03;;;;;;;34.03;26.57;;;5.70;99.90;;;;;;10506024;28;20228;-79
2020/12/09 03:47:05;;;;;;;35.00;27.60;;;5.80;99.90;;;;;;10505831;28;20667;-81
2020/12/09 03:52:08;;;;;;;35.27;27.40;;;5.80;99.90;;;;;;10524832;28;20247;-81
2020/12/09 03:57:09;;;;;;;36.60;28.87;;;5.80;99.90;;;;;;10542773;28;20220;-81
2020/12/09 04:02:11;;;;;;;37.57;29.00;;;5.80;99.90;;;;;;10533033;28;20216;-81
2020/12/09 04:07:13;;;;;;;37.40;27.60;;;5.70;99.90;;;;;;10530704;28;20180;-81
2020/12/09 04:12:15;;;;;;;40.50;29.57;;;5.70;99.90;;;;;;10530730;28;20232;-81
2020/12/09 04:17:17;;;;;;;37.87;29.20;;;5.70;99.90;;;;;;10525740;28;20299;-81
2020/12/09 04:22:19;;;;;;;42.50;31.30;;;5.60;99.90;;;;;;10534564;28;20206;-81
2020/12/09 04:27:21;;;;;;;42.80;28.93;;;5.60;99.90;;;;;;10548775;28;20196;-80
2020/12/09 04:32:23;;;;;;;40.30;28.97;;;5.40;99.90;;;;;;10530354;28;20199;-81
2020/12/09 04:37:27;;;;;;;41.33;30.40;;;5.30;99.90;;;;;;10548830;28;20265;-81
2020/12/09 04:42:29;;;;;;;41.67;31.27;;;5.30;99.90;;;;;;10530693;28;20199;-81
2020/12/09 04:47:43;;;;;;;42.67;31.70;;;5.20;99.90;;;;;;10531574;28;20227;-81
2020/12/09 04:52:46;;;;;;;42.30;31.80;;;5.20;99.90;;;;;;10515889;28;20206;-80
2020/12/09 04:58:14;;;;;;;44.60;32.60;;;5.20;99.90;;;;;;10551453;28;20227;-81
2020/12/09 05:03:18;;;;;;;42.80;32.10;;;5.20;99.90;;;;;;10543613;28;20202;-81
2020/12/09 05:08:22;;;;;;;41.53;31.73;;;5.10;99.90;;;;;;10531409;28;20341;-81
2020/12/09 05:13:25;;;;;;;42.20;33.63;;;5.20;99.90;;;;;;10528000;28;20195;-81
2020/12/09 05:18:38;;;;;;;40.97;31.27;;;5.20;99.90;;;;;;10548644;28;20290;-80
2020/12/09 05:23:45;;;;;;;43.03;32.17;;;5.20;99.90;;;;;;10516215;28;20293;-80
2020/12/09 05:28:46;;;;;;;38.90;30.40;;;5.20;99.90;;;;;;10527054;28;20270;-81
2020/12/09 05:33:48;;;;;;;42.77;32.83;;;5.20;99.90;;;;;;10527190;28;20675;-81
2020/12/09 05:39:03;;;;;;;43.50;31.93;;;5.20;99.90;;;;;;10544886;28;20243;-81
2020/12/09 05:44:05;;;;;;;40.40;30.73;;;5.20;99.90;;;;;;10527446;28;20610;-81
2020/12/09 05:49:20;;;;;;;37.57;28.70;;;5.20;99.90;;;;;;10504599;28;20211;-82
2020/12/09 05:54:26;;;;;;;36.33;28.60;;;5.20;99.90;;;;;;10549745;28;20188;-80
2020/12/09 05:59:36;;;;;;;37.03;28.53;;;5.20;99.90;;;;;;10504143;28;20789;-81
2020/12/09 06:04:59;;;;;;;37.60;29.53;;;5.20;99.90;;;;;;10487021;28;20196;-81
2020/12/09 06:10:13;;;;;;;37.10;28.07;;;5.20;99.90;;;;;;10487902;28;20216;-82
2020/12/09 06:15:15;;;;;;;35.23;27.77;;;5.10;99.90;;;;;;10489847;28;20216;-82
2020/12/09 06:20:19;;;;;;;34.27;27.33;;;5.10;99.90;;;;;;10473161;28;20251;-82
2020/12/09 06:25:22;;;;;;;33.43;25.53;;;5.10;99.90;;;;;;10487072;28;20218;-80
2020/12/09 06:30:29;;;;;;;32.13;25.90;;;5.10;99.90;;;;;;10532422;28;20687;-81
2020/12/09 06:35:30;;;;;;;32.93;25.50;;;5.10;99.90;;;;;;10549249;28;20214;-81
2020/12/09 06:40:33;;;;;;;33.57;26.93;;;5.10;99.90;;;;;;10526060;22;20224;-81
2020/12/09 06:45:42;;;;;;;30.37;26.17;;;5.10;99.90;;;;;;10461334;28;20284;-81
2020/12/09 06:50:45;;;;;;;33.93;27.80;;;5.10;99.90;;;;;;10478896;28;20695;-81
2020/12/09 06:55:49;;;;;;;32.33;27.23;;;5.10;99.90;;;;;;10458030;28;20220;-81
2020/12/09 07:01:01;;;;;;;36.70;28.80;;;5.10;99.90;;;;;;10475659;28;20216;-81
2020/12/09 07:06:34;;;;;;;35.27;28.37;;;5.20;99.90;;;;;;10479742;28;20606;-81
2020/12/09 07:11:54;;;;;;;34.20;26.40;;;5.20;99.90;;;;;;10468934;28;20216;-81
2020/12/09 07:16:57;;;;;;;33.97;28.20;;;5.10;99.90;;;;;;10481751;28;20252;-81
2020/12/09 07:22:02;;;;;;;36.23;27.60;;;5.10;99.90;;;;;;10484411;28;20216;-81
2020/12/09 07:27:05;;;;;;;38.53;30.10;;;5.10;99.90;;;;;;10481192;28;20212;-81
2020/12/09 07:32:08;;;;;;;36.30;27.37;;;5.10;99.90;;;;;;10482924;28;20708;-81
2020/12/09 07:37:10;;;;;;;38.40;29.50;;;5.10;99.90;;;;;;10476633;28;20291;-81
2020/12/09 07:42:14;;;;;;;39.53;30.80;;;5.10;99.90;;;;;;10501851;28;20233;-81
2020/12/09 07:47:22;;;;;;;37.73;28.90;;;5.10;99.90;;;;;;10514393;28;20240;-81
2020/12/09 07:52:27;;;;;;;39.13;29.13;;;5.20;99.90;;;;;;10490071;28;20216;-81
2020/12/09 07:57:34;;;;;;;37.60;29.07;;;5.30;99.90;;;;;;10489973;28;20243;-81
2020/12/09 08:02:39;;;;;;;38.00;28.90;;;5.30;99.90;;;;;;10508856;28;20193;-81
2020/12/09 08:07:55;;;;;;;38.20;28.77;;;5.30;99.90;;;;;;10502552;28;20185;-80
2020/12/09 08:13:10;;;;;;;40.87;30.70;;;5.30;99.90;;;;;;10502125;28;20216;-81
2020/12/09 08:18:21;;;;;;;38.23;30.40;;;5.30;99.90;;;;;;10487354;28;20252;-81
2020/12/09 08:23:39;;;;;;;38.73;30.10;;;5.30;99.90;;;;;;10486005;28;20189;-81
2020/12/09 08:28:47;;;;;;;40.57;30.67;;;5.30;99.90;;;;;;10504087;28;20223;-81
2020/12/09 08:33:50;;;;;;;38.17;30.33;;;5.30;99.90;;;;;;10484283;28;20695;-81
2020/12/09 08:39:00;;;;;;;38.33;31.07;;;5.40;99.90;;;;;;10465460;28;20300;-81
2020/12/09 08:44:04;;;;;;;39.50;29.77;;;5.40;99.90;;;;;;10483094;28;20193;-81
2020/12/09 08:49:06;;;;;;;36.73;28.57;;;5.40;99.90;;;;;;10481860;28;20201;-81
2020/12/09 08:54:10;;;;;;;36.57;30.20;;;5.30;99.90;;;;;;10499503;28;20189;-81
2020/12/09 08:59:12;;;;;;;33.10;28.20;;;5.30;99.90;;;;;;10502948;28;20591;-81
2020/12/09 09:04:32;;;;;;;36.90;29.40;;;5.30;99.90;;;;;;10499096;28;20690;-80
2020/12/09 09:09:34;;;;;;;41.03;32.57;;;5.30;99.90;;;;;;10482663;28;20208;-80
2020/12/09 09:14:37;;;;;;;37.93;30.33;;;5.40;99.90;;;;;;10512955;28;20203;-81
2020/12/09 09:19:39;;;;;;;38.53;30.50;;;5.40;99.90;;;;;;10472061;28;20285;-80
2020/12/09 09:24:40;;;;;;;39.70;30.20;;;5.40;99.90;;;;;;10488446;28;20373;-81
2020/12/09 09:29:43;;;;;;;40.87;32.00;;;5.40;99.90;;;;;;10515177;28;20216;-80
2020/12/09 09:34:45;;;;;;;42.77;32.70;;;5.20;99.90;;;;;;10485361;28;20199;-80
2020/12/09 09:39:46;;;;;;;41.33;31.53;;;5.10;99.90;;;;;;10502717;28;20228;-80
2020/12/09 09:44:50;;;;;;;41.40;30.37;;;5.10;99.90;;;;;;10484744;28;20288;-80
2020/12/09 09:49:52;;;;;;;42.57;32.83;;;5.20;99.90;;;;;;10485313;28;20303;-80
2020/12/09 09:54:54;;;;;;;44.33;33.30;;;5.20;99.90;;;;;;10503440;28;20208;-80
2020/12/09 09:59:56;;;;;;;45.97;33.77;;;5.30;99.90;;;;;;10486301;28;20688;-80
2020/12/09 10:04:58;;;;;;;44.10;33.70;;;5.30;99.90;;;;;;10484834;28;20193;-80
2020/12/09 10:10:03;;;;;;;40.47;31.10;;;5.30;99.90;;;;;;10468148;28;20223;-80
2020/12/09 10:15:05;;;;;;;44.40;35.63;;;5.40;99.90;;;;;;10486680;28;20219;-80
2020/12/09 10:20:07;;;;;;;47.03;35.60;;;5.40;99.90;;;;;;10506112;28;20220;-80
2020/12/09 10:25:09;;;;;;;41.60;31.87;;;5.40;99.90;;;;;;10501447;28;20271;-80
2020/12/09 10:30:11;;;;;;;42.63;33.73;;;5.50;99.90;;;;;;10496758;28;20220;-80
2020/12/09 10:35:13;;;;;;;42.87;32.40;;;5.50;99.90;;;;;;10496769;28;20231;-80
2020/12/09 10:40:15;;;;;;;39.70;31.13;;;5.50;99.90;;;;;;10495617;28;20604;-80
2020/12/09 10:45:18;;;;;;;44.40;32.33;;;5.50;99.90;;;;;;10459721;28;20200;-80
2020/12/09 10:50:19;;;;;;;37.93;29.60;;;5.60;99.90;;;;;;10463142;28;20208;-79
2020/12/09 10:55:23;;;;;;;41.90;30.97;;;5.60;99.90;;;;;;10480696;28;20196;-80
2020/12/09 11:00:25;;;;;;;37.10;28.67;;;5.60;99.90;;;;;;10501389;28;20423;-80
2020/12/09 11:05:27;;;;;;;37.13;28.97;;;5.60;99.90;;;;;;10464920;28;20251;-80
2020/12/09 11:10:29;;;;;;;37.60;28.73;;;5.60;99.90;;;;;;10485100;28;20216;-79
2020/12/09 11:15:31;;;;;;;37.40;29.80;;;5.60;99.90;;;;;;10515834;28;20200;-80
2020/12/09 11:20:34;;;;;;;36.43;29.30;;;5.60;99.90;;;;;;10492209;28;20255;-79
2020/12/09 11:25:36;;;;;;;39.80;29.80;;;5.60;99.90;;;;;;10497856;28;20195;-80
2020/12/09 11:30:38;;;;;;;40.40;30.73;;;5.70;99.90;;;;;;10464384;28;20235;-80
2020/12/09 11:35:40;;;;;;;41.50;31.90;;;5.70;99.90;;;;;;10499924;28;20291;-80
2020/12/09 11:40:43;;;;;;;41.40;31.70;;;5.70;99.90;;;;;;10500292;28;20310;-80
2020/12/09 11:45:46;;;;;;;38.83;29.07;;;5.70;99.90;;;;;;10541303;28;20180;-80
2020/12/09 11:50:48;;;;;;;37.03;29.37;;;5.60;99.90;;;;;;10539374;28;20298;-80
2020/12/09 11:55:50;;;;;;;39.83;31.13;;;5.60;99.90;;;;;;10528097;28;20220;-80
2020/12/09 12:00:52;;;;;;;42.20;32.43;;;5.60;99.90;;;;;;10470715;28;20862;-80
2020/12/09 12:05:54;;;;;;;39.57;29.67;;;5.60;99.90;;;;;;10491543;28;20258;-80
2020/12/09 12:10:56;;;;;;;43.40;32.03;;;5.60;99.90;;;;;;10475994;28;20223;-80
2020/12/09 12:15:58;;;;;;;45.50;30.87;;;5.60;99.90;;;;;;10476000;28;20303;-80
2020/12/09 12:21:00;;;;;;;43.70;28.70;;;5.60;99.90;;;;;;10497058;28;20256;-80
2020/12/09 12:26:02;;;;;;;43.83;30.93;;;5.70;99.90;;;;;;10489010;28;20244;-80
2020/12/09 12:31:04;;;;;;;39.20;29.97;;;5.70;99.90;;;;;;10479065;28;20607;-80
2020/12/09 12:36:06;;;;;;;41.80;28.40;;;5.70;99.90;;;;;;10481451;28;20219;-80
2020/12/09 12:41:09;;;;;;;40.40;28.67;;;5.80;99.90;;;;;;10480645;28;20258;-80
2020/12/09 12:46:12;;;;;;;37.33;25.90;;;5.70;99.90;;;;;;10482488;28;20200;-80
2020/12/09 12:51:20;;;;;;;36.57;26.57;;;5.80;99.90;;;;;;10501608;28;20314;-80
2020/12/09 12:56:22;;;;;;;37.63;27.90;;;5.80;99.90;;;;;;10516962;28;20216;-80
2020/12/09 13:01:25;;;;;;;35.80;27.10;;;5.80;99.90;;;;;;10509543;28;20279;-80
2020/12/09 13:06:26;;;;;;;39.73;28.80;;;5.80;99.90;;;;;;10493239;28;20291;-80
2020/12/09 13:11:28;;;;;;;41.70;28.37;;;5.80;99.90;;;;;;10472618;28;20228;-80
2020/12/09 13:16:31;;;;;;;44.53;28.63;;;5.90;99.90;;;;;;10457532;28;20239;-80
2020/12/09 13:21:33;;;;;;;76.07;51.20;;;5.90;99.90;;;;;;10500369;28;20220;-80
2020/12/09 13:26:34;;;;;;;45.13;30.47;;;5.90;99.90;;;;;;10458827;28;20212;-80
2020/12/09 13:31:38;;;;;;;40.87;28.93;;;5.90;99.90;;;;;;10478967;28;20223;-80
2020/12/09 13:36:40;;;;;;;41.23;27.93;;;5.80;99.90;;;;;;10496324;28;20212;-80
2020/12/09 13:41:41;;;;;;;45.97;29.40;;;5.80;99.90;;;;;;10480061;28;20227;-80
2020/12/09 13:46:44;;;;;;;40.40;26.90;;;5.70;99.90;;;;;;10495148;28;20260;-80
2020/12/09 13:51:46;;;;;;;38.70;27.83;;;5.70;99.90;;;;;;10493467;28;20755;-80
2020/12/09 13:56:47;;;;;;;42.83;30.40;;;5.60;99.90;;;;;;10495165;28;20319;-80
2020/12/09 14:01:50;;;;;;;39.63;27.63;;;5.60;99.90;;;;;;10462890;28;20220;-81
2020/12/09 14:06:56;;;;;;;43.30;29.27;;;5.50;99.90;;;;;;10478590;28;20200;-79
2020/12/09 14:11:58;;;;;;;37.40;28.67;;;5.50;99.90;;;;;;10496793;28;20224;-80
2020/12/09 14:17:02;;;;;;;42.93;29.77;;;5.40;99.90;;;;;;10479145;28;20223;-80
2020/12/09 14:22:03;;;;;;;44.33;30.40;;;5.40;99.90;;;;;;10480075;28;20228;-80
2020/12/09 14:27:08;;;;;;;41.70;28.70;;;5.30;99.90;;;;;;10497279;28;20216;-80
2020/12/09 14:32:11;;;;;;;40.67;29.33;;;5.30;99.90;;;;;;10483509;28;20629;-79
2020/12/09 14:37:12;;;;;;;41.07;29.43;;;5.30;99.90;;;;;;10502100;28;20220;-80
2020/12/09 14:42:17;;;;;;;45.00;31.57;;;5.30;99.90;;;;;;10463355;28;20812;-80
2020/12/09 14:47:20;;;;;;;39.50;30.80;;;5.20;99.90;;;;;;10495992;28;20214;-80
2020/12/09 14:52:22;;;;;;;41.97;29.30;;;5.20;99.90;;;;;;10472669;28;20311;-80
2020/12/09 14:57:24;;;;;;;37.80;27.73;;;5.20;99.90;;;;;;10482859;28;20742;-80
2020/12/09 15:02:28;;;;;;;35.10;27.90;;;5.20;99.90;;;;;;10457147;28;20761;-80
2020/12/09 15:07:30;;;;;;;30.90;21.10;;;5.20;99.90;;;;;;10452128;28;20223;-80
2020/12/09 15:12:32;;;;;;;37.53;27.80;;;5.20;99.90;;;;;;10469032;28;20636;-80
2020/12/09 15:17:34;;;;;;;41.03;28.90;;;5.20;99.90;;;;;;10468652;28;20261;-80
2020/12/09 15:22:36;;;;;;;38.33;27.93;;;5.20;99.90;;;;;;10481670;28;20299;-80
2020/12/09 15:27:38;;;;;;;36.13;28.03;;;5.20;99.90;;;;;;10472786;28;20219;-81
2020/12/09 15:32:43;;;;;;;38.77;29.10;;;5.10;99.90;;;;;;10457143;28;20593;-80
2020/12/09 15:37:45;;;;;;;41.40;30.33;;;5.10;99.90;;;;;;10490026;28;20301;-80
2020/12/09 15:42:47;;;;;;;37.90;27.53;;;5.10;99.90;;;;;;10492890;28;20216;-80
2020/12/09 15:53:14;;;;;;;38.37;27.97;;;5.00;99.90;;;;;;10580819;23;20283;-81
2020/12/09 15:58:16;;;;;;;39.40;27.43;;;5.00;99.90;;;;;;10213571;29;20335;-81
2020/12/09 16:03:21;;;;;;;41.57;29.60;;;5.00;99.90;;;;;;10199207;29;20292;-81
2020/12/09 16:08:24;;;;;;;35.33;26.40;;;5.00;99.90;;;;;;10207078;29;20228;-81
2020/12/09 16:13:27;;;;;;;37.77;27.80;;;5.00;99.90;;;;;;10238705;29;20259;-81
2020/12/09 16:18:29;;;;;;;41.57;30.13;;;5.00;99.90;;;;;;10256502;29;20229;-81
2020/12/09 16:23:31;;;;;;;37.40;26.30;;;5.00;99.90;;;;;;10240354;29;20318;-82
2020/12/09 16:28:33;;;;;;;39.77;29.70;;;4.90;99.90;;;;;;10240874;29;20248;-82
2020/12/09 16:33:34;;;;;;;37.10;26.90;;;4.90;99.90;;;;;;10265522;28;20673;-81
2020/12/09 16:38:38;;;;;;;38.03;27.90;;;4.90;99.90;;;;;;10268527;28;20270;-81
2020/12/09 16:43:40;;;;;;;33.43;26.40;;;5.00;99.90;;;;;;10292525;28;20208;-81
2020/12/09 16:48:43;;;;;;;33.20;27.07;;;4.90;99.90;;;;;;10270020;28;20221;-81
2020/12/09 16:53:47;;;;;;;30.73;24.07;;;4.90;99.90;;;;;;10253670;28;20787;-81
2020/12/09 16:58:48;;;;;;;31.33;24.37;;;4.90;99.90;;;;;;10251431;28;20331;-82
2020/12/09 17:03:56;;;;;;;33.50;25.50;;;4.80;99.90;;;;;;10258666;28;20196;-81
2020/12/09 17:09:00;;;;;;;29.53;23.50;;;4.80;99.90;;;;;;10237182;28;20633;-81
2020/12/09 17:14:03;;;;;;;28.20;21.87;;;4.80;99.90;;;;;;10239238;28;20204;-82
2020/12/09 17:19:04;;;;;;;30.30;23.60;;;4.80;99.90;;;;;;10261783;28;20224;-82
2020/12/09 17:24:07;;;;;;;29.73;22.77;;;4.80;99.90;;;;;;10276798;28;20200;-81
2020/12/09 17:29:08;;;;;;;28.60;22.70;;;4.90;99.90;;;;;;10248729;28;20213;-82
2020/12/09 17:34:17;;;;;;;33.33;23.00;;;4.90;99.90;;;;;;10271488;28;20219;-81
2020/12/09 17:39:22;;;;;;;29.20;22.03;;;4.90;99.90;;;;;;10227980;28;20308;-81
2020/12/09 17:44:36;;;;;;;26.17;21.10;;;4.90;99.90;;;;;;10261305;28;20215;-81
2020/12/09 17:49:40;;;;;;;25.90;21.20;;;4.90;99.90;;;;;;10266515;28;20238;-81
2020/12/09 17:54:43;;;;;;;25.33;22.10;;;4.90;99.90;;;;;;10262902;28;20255;-80
2020/12/09 17:59:44;;;;;;;28.60;21.70;;;4.90;99.90;;;;;;10222598;28;20232;-81
2020/12/09 18:04:46;;;;;;;27.10;20.83;;;4.90;99.90;;;;;;10241985;28;20208;-81
2020/12/09 18:09:49;;;;;;;28.03;20.60;;;4.90;99.90;;;;;;10266519;28;20270;-81
2020/12/09 18:14:51;;;;;;;25.00;20.90;;;4.90;99.90;;;;;;10274886;28;20208;-81
2020/12/09 18:19:53;;;;;;;25.70;21.37;;;4.90;99.90;;;;;;10262686;28;20224;-81
2020/12/09 18:24:55;;;;;;;25.07;20.37;;;4.90;99.90;;;;;;10253484;28;20219;-80
2020/12/09 18:30:08;;;;;;;26.77;22.07;;;4.90;99.90;;;;;;10241740;28;20216;-81
2020/12/09 18:35:18;;;;;;;19.00;14.90;;;4.80;99.90;;;;;;10250357;28;20200;-82
2020/12/09 18:40:21;;;;;;;23.67;19.40;;;4.80;99.90;;;;;;10267900;23;20276;-79
2020/12/09 18:45:25;;;;;;;27.60;21.93;;;4.90;99.90;;;;;;10224958;28;20225;-79
2020/12/09 18:50:27;;;;;;;24.73;20.73;;;4.80;99.90;;;;;;10235630;29;20220;-81
2020/12/09 18:55:33;;;;;;;26.77;22.43;;;4.80;99.90;;;;;;10220980;29;20207;-79
2020/12/09 19:00:38;;;;;;;25.67;21.70;;;4.80;99.90;;;;;;10206716;29;20224;-80
2020/12/09 19:05:40;;;;;;;25.47;21.83;;;4.80;99.90;;;;;;10196654;29;20213;-80
2020/12/09 19:10:43;;;;;;;27.67;22.20;;;4.80;99.90;;;;;;10214972;29;20689;-81
2020/12/09 19:15:44;;;;;;;26.03;21.53;;;4.90;99.90;;;;;;10230279;29;20268;-79
2020/12/09 19:20:46;;;;;;;29.60;23.60;;;4.90;99.90;;;;;;10197095;29;20229;-80
2020/12/09 19:25:49;;;;;;;24.60;21.43;;;4.90;99.90;;;;;;10230645;29;20208;-80
2020/12/09 19:30:51;;;;;;;24.43;21.40;;;4.90;99.90;;;;;;10233153;29;20304;-81
2020/12/09 19:35:52;;;;;;;23.50;20.10;;;4.90;99.90;;;;;;10246346;29;20692;-80
2020/12/09 19:40:55;;;;;;;23.57;20.30;;;4.90;99.90;;;;;;10230033;29;20233;-80
2020/12/09 19:45:56;;;;;;;26.17;21.73;;;4.90;99.90;;;;;;10202951;29;20719;-79
2020/12/09 19:50:58;;;;;;;24.10;20.17;;;4.90;99.90;;;;;;10203247;29;20640;-80
2020/12/09 19:56:01;;;;;;;23.73;19.93;;;4.90;99.90;;;;;;10221416;29;20216;-80
2020/12/09 20:01:03;;;;;;;26.13;21.00;;;5.00;99.90;;;;;;10235984;29;20323;-79
2020/12/09 20:06:05;;;;;;;22.60;19.10;;;5.00;99.90;;;;;;10212821;29;20619;-80
2020/12/09 20:11:08;;;;;;;22.47;19.77;;;5.00;99.90;;;;;;10218340;29;20300;-81
2020/12/09 20:16:10;;;;;;;25.57;20.93;;;5.00;99.90;;;;;;10201011;29;20201;-80
2020/12/09 20:21:11;;;;;;;26.30;19.00;;;5.10;99.90;;;;;;10201156;29;20280;-80
2020/12/09 20:26:16;;;;;;;22.43;20.00;;;5.10;99.90;;;;;;10212680;29;20265;-80
2020/12/09 20:31:18;;;;;;;21.80;18.90;;;5.10;99.90;;;;;;10235779;29;20706;-80
2020/12/09 20:36:25;;;;;;;22.17;17.70;;;5.10;99.90;;;;;;10204101;29;20201;-81
2020/12/09 20:41:28;;;;;;;22.10;18.17;;;5.10;99.90;;;;;;10224719;28;20505;-80
2020/12/09 20:46:30;;;;;;;22.20;18.27;;;5.10;99.90;;;;;;10235598;29;20210;-79
2020/12/09 20:51:37;;;;;;;20.90;17.30;;;5.00;99.90;;;;;;10199501;29;20701;-81
2020/12/09 20:56:40;;;;;;;20.07;16.47;;;5.00;99.90;;;;;;10217321;29;20212;-80
2020/12/09 21:01:42;;;;;;;20.53;17.20;;;5.00;99.90;;;;;;10232116;29;20240;-79
2020/12/09 21:06:44;;;;;;;19.13;17.10;;;5.00;99.90;;;;;;10235586;29;20197;-81
2020/12/09 21:11:47;;;;;;;19.13;16.67;;;5.00;99.90;;;;;;10238813;29;20229;-80
2020/12/09 21:16:52;;;;;;;19.40;17.40;;;5.10;99.90;;;;;;10222619;29;20300;-81
2020/12/09 21:21:54;;;;;;;21.03;17.60;;;5.10;99.90;;;;;;10211465;29;20308;-80
2020/12/09 21:26:56;;;;;;;20.50;17.63;;;5.10;99.90;;;;;;10232577;29;20644;-80
2020/12/09 21:31:59;;;;;;;20.20;16.97;;;5.00;99.90;;;;;;10231236;29;20231;-80
2020/12/09 21:37:01;;;;;;;21.23;17.87;;;5.00;99.90;;;;;;10229249;29;20221;-82
2020/12/09 21:42:03;;;;;;;21.77;18.27;;;5.10;99.90;;;;;;10211401;29;20348;-83
2020/12/09 21:47:05;;;;;;;22.60;18.63;;;5.10;99.90;;;;;;10227806;28;20205;-81
2020/12/09 21:52:10;;;;;;;23.43;18.00;;;5.10;99.90;;;;;;10198311;28;20223;-83
2020/12/09 21:57:13;;;;;;;22.13;19.00;;;5.10;99.90;;;;;;10203280;29;20708;-81
2020/12/09 22:02:15;;;;;;;22.30;18.00;;;5.10;99.90;;;;;;10195914;29;20269;-82
2020/12/09 22:07:16;;;;;;;23.07;18.40;;;5.00;99.90;;;;;;10185016;29;20211;-82
2020/12/09 22:12:19;;;;;;;23.40;19.57;;;5.00;99.90;;;;;;10193150;29;20228;-83
2020/12/09 22:17:21;;;;;;;23.30;19.30;;;5.00;99.90;;;;;;10179890;29;20311;-81
2020/12/09 22:22:22;;;;;;;23.43;19.90;;;5.00;99.90;;;;;;10178352;29;20272;-80
2020/12/09 22:27:25;;;;;;;23.83;18.90;;;5.00;99.90;;;;;;10185118;29;20208;-80
2020/12/09 22:32:27;;;;;;;24.70;19.60;;;5.00;99.90;;;;;;10195942;29;20264;-81
2020/12/09 22:37:29;;;;;;;23.90;19.57;;;5.00;99.90;;;;;;10182317;29;20293;-82
2020/12/09 22:42:31;;;;;;;23.00;19.60;;;5.00;99.90;;;;;;10237888;29;20220;-81
2020/12/09 22:47:33;;;;;;;24.00;19.83;;;5.00;99.90;;;;;;10255724;28;20284;-82
2020/12/09 22:52:34;;;;;;;23.90;20.50;;;5.00;99.90;;;;;;10189964;29;20236;-80
2020/12/09 22:57:37;;;;;;;21.93;17.97;;;5.00;99.90;;;;;;10182878;29;20231;-81
2020/12/09 23:02:38;;;;;;;21.50;18.37;;;5.00;99.90;;;;;;10198511;29;20232;-81
2020/12/09 23:07:41;;;;;;;24.30;21.27;;;4.90;99.90;;;;;;10199885;29;20193;-81
2020/12/09 23:12:44;;;;;;;21.67;18.50;;;4.90;99.90;;;;;;10187565;29;20228;-81
2020/12/09 23:17:45;;;;;;;22.30;18.90;;;4.90;99.90;;;;;;10180097;29;20248;-80
2020/12/09 23:22:47;;;;;;;23.03;19.73;;;4.90;99.90;;;;;;10198134;29;20275;-80
2020/12/09 23:27:49;;;;;;;23.33;19.17;;;4.90;99.90;;;;;;10209804;29;20723;-80
2020/12/09 23:32:51;;;;;;;23.20;18.73;;;4.90;99.90;;;;;;10209353;29;20240;-80
2020/12/09 23:37:53;;;;;;;26.70;20.00;;;4.90;99.90;;;;;;10225119;29;20339;-79
2020/12/09 23:42:55;;;;;;;24.03;19.47;;;4.80;99.90;;;;;;10210084;29;20260;-79
2020/12/09 23:47:57;;;;;;;22.63;18.33;;;4.80;99.90;;;;;;10207902;29;20214;-80
2020/12/09 23:52:58;;;;;;;22.33;18.70;;;4.80;99.90;;;;;;10217236;29;20201;-80
2020/12/09 23:58:01;;;;;;;22.20;18.90;;;4.80;99.90;;;;;;10263367;29;20583;-80
